Дата Пункты Температура Давл., мм. Влажн., % Ветер Погодные явления
Воздуха Воды Направл. Скорость
19.05.19 03:00 Одесса 18.0 18.0 752 85 Пн 3 03 ГОДИНИ
18.05.19 09:00 Одесса 21.0 19.0 752 74 Пд 1 21 ГОДИНУ
18.05.19 06:00 Одесса 23.0 19.0 751 70 Пд 3 18 ГОДИН
18.05.19 03:00 Одесса 25.0 19.0 752 63 Пд-С 3 15 ГОДИН
18.05.19 12:00 Одесса 22.0 18.0 752 75 С 4 12 ГОДИН
18.05.19 09:00 Одесса 20.0 18.0 753 83 С 5 09 ГОДИН
18.05.19 06:00 Одесса 19.0 17.0 752 88 Пн-С 5 06 ГОДИН
18.05.19 03:00 Одесса 21.0 17.0 753 73 Пн-З 2 03 ГОДИНИ
17.05.19 09:00 Одесса 21.0 17.0 754 70 Пн 0 21 ГОДИНУ
17.05.19 06:00 Одесса 24.0 17.0 754 62 Пн 0 18 ГОДИН
17.05.19 03:00 Одесса 24.0 17.0 755 60 Пд-С 2 15 ГОДИН
17.05.19 12:00 Одесса 22.0 17.0 755 60 Пн-С 1 12 ГОДИН
17.05.19 09:00 Одесса 20.0 17.0 756 69 Пн-С 2 09 ГОДИН
17.05.19 06:00 Одесса 14.0 16.0 755 93 Пн 0 06 ГОДИН
17.05.19 03:00 Одесса 16.0 16.0 755 83 Пн 0 03 ГОДИНИ
16.05.19 09:00 Одесса 19.0 16.0 755 70 Пн 0 21 ГОДИНУ
16.05.19 06:00 Одесса 23.0 16.0 755 54 Пд 2 18 ГОДИН
16.05.19 03:00 Одесса 21.0 16.0 755 69 Пд-С 3 15 ГОДИН
16.05.19 12:00 Одесса 21.0 15.0 756 63 Пн-С 3 12 ГОДИН
16.05.19 09:00 Одесса 19.0 15.0 756 70 Пн-С 4 09 ГОДИН
Количество строк
1 2 3 4 5 6 7 8 9 10
Page 2 of 491